The Pas Airport
CYQD : now visible

Airfield :











YOU CAN JOIN US ON...

 
LOGIN :

Register | Disclaimer

   EN    FR    IT 

 









Legend :    VFR   Marginal VFR   IFR   Intensive IFR   Very Intensive IFR
Visi :
Ceiling :
>= 8 km
>= 3000ft
5 to 8 km
1000 to 3000 ft
1500m to 5 km
500 to 1000 ft
800 to 1500m
200 to 500 ft
< 800m
< 200 ft
Symbols :   Thunderstorms  Fog  Heavy snow  Heavy precipitations  Wind > 20 kt






- Airport Elevation : 887 ft
- IATA code : YQD


CYQD - The Pas

CURRENT METAR :
  • 191800Z AUTO 24010G15KT 9SM CLR M16/M25 A3053 RMK SLP372

EXPIRED METARs :
  • 191700Z AUTO 22009G16KT 9SM CLR M19/M25 A3055 RMK SLP381
  • 191600Z AUTO 24007KT 9SM CLR M22/M27 A3057 RMK SLP388

TAF TAF CYQD
Valid from the 19 at 13:00 until the 20 at 01:00 UTC


191238Z 1913/2001 23005KT P6SM SKC
FM191800 23010KT P6SM SCT160
FM200000 23010KT P6SM BKN040 BKN200 RMK FCST BASED ON AUTO OBS. NXT FCST BY 191900Z



MET'MAP, your aeronautical weather chart ! - Copyright ORBIFLY December 2007 - Disclaimer

ORBIFLY MET'MAP TEAM :

Programming & Development : Alexandra Zaïnal
Concept & original design : Baudouin d'Aumeries
Assistance for programming : Marc-Olivier Méhu
Technical & hardware support : Manuel Goepfert

Contact : metmap@orbifly.com




SOURCES & CREDITS :

   NOAA       Earth
Advisory